Minerva Concert — SVWC — position and weather

sailwx.info

Track history (hours):
 
Tides and Currents Weather Stations Pressure Air Temp Water Temp Dewpoint Dewpoint Depression Visibility Wind Speed Wind Dir Waves Ship Positions

Minerva Concert

Last reported at 2015-Aug-01 15:18 UTC. Time now 2015-Aug-05 06:27 UTC.
Position N 41°02' E 018°22'.

Length 241 m; draft 12.3 m.

Type: Ship. MMSI: 240110000.

Date/timePositionNaut miles runAvg speedWind from/ knotsBaromVisibWave heightAir tempDewpointWater temp
2015-Aug-01 15:18N 41°02' E 018°22'37810.5
2015-Jul-31 03:15N 35°27' E 022°04'1412.8
2015-Jul-31 02:09N 35°15' E 022°13'912.9
2015-Jul-31 01:27N 35°07' E 022°18'108 9.7
2015-Jul-30 14:22N 33°35' E 023°26'0 0.4
2015-Jul-30 13:24N 33°35' E 023°26'1 0.4
2015-Jul-30 11:07N 33°36' E 023°25'5 0.3
2015-Jul-29 21:33N 33°37' E 023°20'46 9.2
2015-Jul-29 16:33N 32°55' E 023°41'1111.5
2015-Jul-29 15:33N 32°45' E 023°47'  
2015-Jul-25 09:32N 35°29' E 016°12'2 0.9
2015-Jul-25 07:14N 35°29' E 016°09'1 1.0
2015-Jul-25 06:33N 35°29' E 016°09'1 1.0
2015-Jul-25 05:17N 35°29' E 016°07'1 1.0
2015-Jul-25 04:33N 35°28' E 016°06'1 0.9
2015-Jul-25 03:33N 35°28' E 016°05'1 0.8
2015-Jul-25 02:33N 35°27' E 016°05'1 0.7
2015-Jul-25 01:24N 35°27' E 016°04'1 0.5
2015-Jul-24 23:28N 35°26' E 016°03'0 0.4
2015-Jul-24 22:27N 35°25' E 016°03'0 0.3
2015-Jul-24 21:33N 35°25' E 016°04'0 0.1
2015-Jul-24 19:29N 35°25' E 016°04'1 0.6
2015-Jul-24 18:33N 35°26' E 016°03'5 0.8
2015-Jul-24 12:13N 35°28' E 015°58'0 0.7
2015-Jul-24 11:33N 35°27' E 015°57'1 0.6
2015-Jul-24 09:29N 35°27' E 015°56'1 0.6
2015-Jul-24 08:28N 35°27' E 015°55'1 0.5
2015-Jul-24 06:12N 35°26' E 015°54'0 0.4
2015-Jul-24 05:20N 35°26' E 015°54'0 0.4
2015-Jul-24 04:22N 35°25' E 015°54'1 0.2
2015-Jul-24 01:33N 35°25' E 015°53'0 0.2
2015-Jul-24 00:29N 35°25' E 015°53'0 0.4
2015-Jul-23 23:33N 35°25' E 015°54'1 0.5
2015-Jul-23 22:33N 35°26' E 015°54'0 0.5
2015-Jul-23 21:33N 35°26' E 015°54'1 0.5
2015-Jul-23 20:33N 35°27' E 015°54'1 0.6
2015-Jul-23 18:16N 35°28' E 015°53'0 0.7
2015-Jul-23 17:33N 35°28' E 015°52'1 0.6
2015-Jul-23 16:33N 35°29' E 015°52'1 0.7
2015-Jul-23 15:33N 35°29' E 015°51'1 0.6
2015-Jul-23 14:33N 35°29' E 015°50'0 0.5
2015-Jul-23 13:33N 35°29' E 015°50'1 0.5
2015-Jul-23 12:33N 35°28' E 015°49'1 0.5
2015-Jul-23 11:33N 35°28' E 015°49'0 0.5
2015-Jul-23 10:33N 35°28' E 015°48'0 0.5
2015-Jul-23 09:33N 35°27' E 015°48'0 0.4
2015-Jul-23 08:33N 35°27' E 015°48'0 0.4
2015-Jul-23 07:33N 35°26' E 015°48'0 0.2
2015-Jul-23 06:32N 35°26' E 015°48'1 0.4
2015-Jul-23 03:22N 35°27' E 015°49'1 0.7
2015-Jul-23 02:05N 35°28' E 015°50'0 0.7
2015-Jul-23 01:29N 35°28' E 015°49'1 0.7
2015-Jul-23 00:33N 35°29' E 015°49'1 0.7
2015-Jul-22 23:33N 35°29' E 015°49'1 0.7
2015-Jul-22 22:33N 35°30' E 015°48'1 0.7
2015-Jul-22 21:33N 35°30' E 015°47'1 0.6
2015-Jul-22 20:33N 35°30' E 015°46'1 0.6
2015-Jul-22 19:33N 35°30' E 015°46'1 0.6
2015-Jul-22 18:33N 35°30' E 015°45'1 0.6
2015-Jul-22 17:33N 35°30' E 015°44'0 0.5
2015-Jul-22 16:33N 35°30' E 015°44'0 0.2
2015-Jul-22 15:33N 35°30' E 015°43'  
Track history (hours):
 
Tides and Currents Weather Stations Pressure Air Temp Water Temp Dewpoint Dewpoint Depression Visibility Wind Speed Wind Dir Waves Ship Positions

Minerva Concert

Last reported at 2015-Aug-01 15:18 UTC. Time now 2015-Aug-05 06:27 UTC.
Position N 41°02' E 018°22'.

Length 241 m; draft 12.3 m.

Type: Ship. MMSI: 240110000.

Date/timePositionNaut miles runAvg speedWind from/ knotsBaromVisibWave heightAir tempDewpointWater temp
2015-Aug-01 15:18N 41°02' E 018°22'37810.5
2015-Jul-31 03:15N 35°27' E 022°04'1412.8
2015-Jul-31 02:09N 35°15' E 022°13'912.9
2015-Jul-31 01:27N 35°07' E 022°18'108 9.7
2015-Jul-30 14:22N 33°35' E 023°26'0 0.4
2015-Jul-30 13:24N 33°35' E 023°26'1 0.4
2015-Jul-30 11:07N 33°36' E 023°25'5 0.3
2015-Jul-29 21:33N 33°37' E 023°20'46 9.2
2015-Jul-29 16:33N 32°55' E 023°41'1111.5
2015-Jul-29 15:33N 32°45' E 023°47'  
2015-Jul-25 09:32N 35°29' E 016°12'2 0.9
2015-Jul-25 07:14N 35°29' E 016°09'1 1.0
2015-Jul-25 06:33N 35°29' E 016°09'1 1.0
2015-Jul-25 05:17N 35°29' E 016°07'1 1.0
2015-Jul-25 04:33N 35°28' E 016°06'1 0.9
2015-Jul-25 03:33N 35°28' E 016°05'1 0.8
2015-Jul-25 02:33N 35°27' E 016°05'1 0.7
2015-Jul-25 01:24N 35°27' E 016°04'1 0.5
2015-Jul-24 23:28N 35°26' E 016°03'0 0.4
2015-Jul-24 22:27N 35°25' E 016°03'0 0.3
2015-Jul-24 21:33N 35°25' E 016°04'0 0.1
2015-Jul-24 19:29N 35°25' E 016°04'1 0.6
2015-Jul-24 18:33N 35°26' E 016°03'5 0.8
2015-Jul-24 12:13N 35°28' E 015°58'0 0.7
2015-Jul-24 11:33N 35°27' E 015°57'1 0.6
2015-Jul-24 09:29N 35°27' E 015°56'1 0.6
2015-Jul-24 08:28N 35°27' E 015°55'1 0.5
2015-Jul-24 06:12N 35°26' E 015°54'0 0.4
2015-Jul-24 05:20N 35°26' E 015°54'0 0.4
2015-Jul-24 04:22N 35°25' E 015°54'1 0.2
2015-Jul-24 01:33N 35°25' E 015°53'0 0.2
2015-Jul-24 00:29N 35°25' E 015°53'0 0.4
2015-Jul-23 23:33N 35°25' E 015°54'1 0.5
2015-Jul-23 22:33N 35°26' E 015°54'0 0.5
2015-Jul-23 21:33N 35°26' E 015°54'1 0.5
2015-Jul-23 20:33N 35°27' E 015°54'1 0.6
2015-Jul-23 18:16N 35°28' E 015°53'0 0.7
2015-Jul-23 17:33N 35°28' E 015°52'1 0.6
2015-Jul-23 16:33N 35°29' E 015°52'1 0.7
2015-Jul-23 15:33N 35°29' E 015°51'1 0.6
2015-Jul-23 14:33N 35°29' E 015°50'0 0.5
2015-Jul-23 13:33N 35°29' E 015°50'1 0.5
2015-Jul-23 12:33N 35°28' E 015°49'1 0.5
2015-Jul-23 11:33N 35°28' E 015°49'0 0.5
2015-Jul-23 10:33N 35°28' E 015°48'0 0.5
2015-Jul-23 09:33N 35°27' E 015°48'0 0.4
2015-Jul-23 08:33N 35°27' E 015°48'0 0.4
2015-Jul-23 07:33N 35°26' E 015°48'0 0.2
2015-Jul-23 06:32N 35°26' E 015°48'1 0.4
2015-Jul-23 03:22N 35°27' E 015°49'1 0.7
2015-Jul-23 02:05N 35°28' E 015°50'0 0.7
2015-Jul-23 01:29N 35°28' E 015°49'1 0.7
2015-Jul-23 00:33N 35°29' E 015°49'1 0.7
2015-Jul-22 23:33N 35°29' E 015°49'1 0.7
2015-Jul-22 22:33N 35°30' E 015°48'1 0.7
2015-Jul-22 21:33N 35°30' E 015°47'1 0.6
2015-Jul-22 20:33N 35°30' E 015°46'1 0.6
2015-Jul-22 19:33N 35°30' E 015°46'1 0.6
2015-Jul-22 18:33N 35°30' E 015°45'1 0.6
2015-Jul-22 17:33N 35°30' E 015°44'0 0.5
2015-Jul-22 16:33N 35°30' E 015°44'0 0.2
2015-Jul-22 15:33N 35°30' E 015°43'  

Dump ship's entire track history